createdAt,value
2018-12-22T00:00:26.964Z,67.74
2018-12-22T00:02:33.554Z,67.60
2018-12-22T00:04:39.994Z,66.88
2018-12-22T00:06:46.330Z,66.95
2018-12-22T00:08:52.609Z,67.79
2018-12-22T00:11:00.919Z,67.09
2018-12-22T00:13:07.342Z,67.63
2018-12-22T00:15:14.627Z,67.67
2018-12-22T00:17:21.752Z,67.54
2018-12-22T00:19:28.186Z,67.84
2018-12-22T00:21:35.186Z,67.70
2018-12-22T00:23:42.481Z,68.17
2018-12-22T00:25:49.723Z,67.85
2018-12-22T00:27:56.101Z,68.04
2018-12-22T00:30:03.407Z,68.09
2018-12-22T00:32:10.178Z,68.01
2018-12-22T00:34:16.972Z,67.82
2018-12-22T00:36:23.458Z,68.38
2018-12-22T00:38:31.617Z,67.74
2018-12-22T00:40:38.202Z,68.46
2018-12-22T00:42:44.518Z,67.80
2018-12-22T00:44:51.914Z,67.71
2018-12-22T00:46:58.282Z,68.06
2018-12-22T00:49:04.935Z,68.12
2018-12-22T00:51:11.454Z,68.10
2018-12-22T00:53:18.248Z,67.94
2018-12-22T00:55:24.694Z,68.13
2018-12-22T00:57:31.707Z,67.81
2018-12-22T00:59:38.881Z,67.95
2018-12-22T01:01:45.993Z,67.40
2018-12-22T01:03:52.296Z,68.30
2018-12-22T01:05:58.684Z,68.26
2018-12-22T01:08:05.221Z,68.03
2018-12-22T01:10:11.928Z,68.11
2018-12-22T01:12:18.662Z,67.96
2018-12-22T01:14:25.484Z,68.51
2018-12-22T01:18:48.169Z,68.30
2018-12-22T01:20:54.947Z,68.02
2018-12-22T01:23:01.204Z,67.77
2018-12-22T01:25:07.910Z,67.67
2018-12-22T01:27:14.151Z,68.64
2018-12-22T01:29:20.485Z,68.32
2018-12-22T01:31:26.877Z,68.58
2018-12-22T01:33:33.203Z,67.89
2018-12-22T01:35:40.814Z,68.11
2018-12-22T01:37:48.470Z,68.04
2018-12-22T01:39:54.954Z,67.65
2018-12-22T01:42:01.433Z,67.68
2018-12-22T01:44:08.283Z,68.39
2018-12-22T01:46:15.570Z,67.76
2018-12-22T01:48:22.736Z,68.01
2018-12-22T01:50:29.938Z,68.58
2018-12-22T01:52:36.302Z,67.90
2018-12-22T01:54:43.823Z,68.54
2018-12-22T01:56:50.692Z,68.05
2018-12-22T01:58:57.172Z,68.63
2018-12-22T02:01:03.995Z,68.24
2018-12-22T02:03:11.827Z,68.26
2018-12-22T02:05:18.322Z,68.00
2018-12-22T02:07:24.721Z,68.62
2018-12-22T02:09:31.114Z,68.95
2018-12-22T02:11:38.164Z,68.10
2018-12-22T02:13:46.513Z,68.71
2018-12-22T02:15:53.692Z,68.18
2018-12-22T02:18:00.036Z,68.64
2018-12-22T02:22:30.485Z,68.83
2018-12-22T02:24:37.980Z,68.57
2018-12-22T02:26:44.742Z,68.52
2018-12-22T02:28:56.489Z,69.07
2018-12-22T02:30:59.331Z,68.87
2018-12-22T02:33:05.983Z,69.12
2018-12-22T02:35:12.540Z,68.62
2018-12-22T02:37:19.851Z,68.85
2018-12-22T02:39:26.230Z,68.74
2018-12-22T02:41:33.397Z,68.95
2018-12-22T02:43:41.640Z,69.06
2018-12-22T02:45:49.616Z,68.64
2018-12-22T02:47:56.173Z,69.11
2018-12-22T02:50:03.996Z,69.27
2018-12-22T02:52:10.443Z,68.51
2018-12-22T02:54:16.806Z,68.86
2018-12-22T02:56:24.039Z,68.90
2018-12-22T02:58:30.341Z,68.92
2018-12-22T03:00:36.907Z,69.42
2018-12-22T03:02:43.969Z,69.55
2018-12-22T03:04:50.563Z,69.68
2018-12-22T03:06:57.318Z,69.19
2018-12-22T03:09:06.664Z,69.82
2018-12-22T03:11:14.851Z,69.22
2018-12-22T03:13:23.892Z,69.76
2018-12-22T03:15:31.054Z,69.92
2018-12-22T03:17:37.469Z,69.39
2018-12-22T03:19:44.203Z,69.44
2018-12-22T03:21:52.124Z,69.72
2018-12-22T03:23:59.233Z,69.55
2018-12-22T03:26:06.064Z,69.87
2018-12-22T03:28:14.063Z,70.00
2018-12-22T03:30:21.073Z,69.51
2018-12-22T03:32:27.630Z,70.27
2018-12-22T03:34:34.000Z,69.92
2018-12-22T03:36:40.508Z,70.10
2018-12-22T03:38:46.855Z,69.71
2018-12-22T03:40:53.382Z,70.34
2018-12-22T03:42:59.853Z,70.65
2018-12-22T03:45:09.018Z,70.07
2018-12-22T03:47:15.474Z,69.95
2018-12-22T03:49:21.881Z,70.16
2018-12-22T03:51:28.166Z,69.88
2018-12-22T03:53:34.657Z,70.80
2018-12-22T03:55:43.075Z,70.19
2018-12-22T03:57:50.105Z,70.59
2018-12-22T03:59:57.284Z,70.72
2018-12-22T04:02:04.027Z,70.23
2018-12-22T04:04:11.061Z,70.71
2018-12-22T04:06:18.461Z,70.15
2018-12-22T04:08:25.595Z,71.33
2018-12-22T04:10:31.930Z,70.84
2018-12-22T04:12:38.667Z,71.14
2018-12-22T04:14:45.134Z,71.21
2018-12-22T04:16:51.455Z,72.39
2018-12-22T04:18:58.588Z,72.12
2018-12-22T04:21:05.750Z,72.05
2018-12-22T04:23:12.123Z,72.84
2018-12-22T04:25:19.376Z,72.58
2018-12-22T04:27:26.585Z,72.60
2018-12-22T04:29:34.103Z,73.02
2018-12-22T04:31:41.478Z,72.43
2018-12-22T04:33:48.310Z,72.58
2018-12-22T04:35:55.297Z,72.80
2018-12-22T04:38:01.517Z,72.90
2018-12-22T04:40:09.485Z,72.90
2018-12-22T04:42:16.159Z,73.05
2018-12-22T04:44:22.876Z,73.49
2018-12-22T04:46:30.574Z,73.43
2018-12-22T04:48:37.820Z,73.19
2018-12-22T04:50:45.235Z,73.16
2018-12-22T04:52:51.636Z,73.09
2018-12-22T04:54:59.813Z,73.20
2018-12-22T04:57:07.408Z,72.90
2018-12-22T04:59:13.869Z,72.85
2018-12-22T05:01:21.428Z,72.80
2018-12-22T05:03:30.780Z,73.16
2018-12-22T05:05:37.309Z,73.07
2018-12-22T05:07:46.883Z,73.58
2018-12-22T05:09:53.328Z,73.86
2018-12-22T05:12:01.071Z,73.93
2018-12-22T05:14:08.370Z,73.90
2018-12-22T05:16:19.083Z,73.43
2018-12-22T05:18:27.807Z,74.11
2018-12-22T05:20:34.086Z,73.87
2018-12-22T05:22:40.658Z,73.69
2018-12-22T05:24:47.146Z,74.36
2018-12-22T05:26:53.652Z,74.29
2018-12-22T05:29:00.008Z,74.37
2018-12-22T05:31:09.252Z,74.52
2018-12-22T05:33:17.756Z,75.12
2018-12-22T05:35:24.958Z,75.29
2018-12-22T05:37:31.765Z,74.61
2018-12-22T05:39:39.841Z,75.31
2018-12-22T05:41:46.244Z,74.64
2018-12-22T05:43:52.798Z,74.98
2018-12-22T05:46:00.593Z,74.84
2018-12-22T05:48:07.263Z,74.26
2018-12-22T05:50:14.824Z,74.44
2018-12-22T05:52:21.615Z,74.27
2018-12-22T05:54:28.222Z,74.83
2018-12-22T05:56:34.517Z,74.35
2018-12-22T05:58:41.093Z,74.59
2018-12-22T06:00:49.538Z,74.60
2018-12-22T06:02:56.668Z,73.97
2018-12-22T06:05:02.998Z,74.28
2018-12-22T06:07:17.075Z,74.10
2018-12-22T06:09:25.916Z,74.23
2018-12-22T06:11:32.623Z,74.53
2018-12-22T06:13:39.809Z,74.79
2018-12-22T06:15:46.382Z,74.37
2018-12-22T06:17:54.593Z,73.99
2018-12-22T06:20:01.303Z,74.54
2018-12-22T06:22:09.895Z,74.48
2018-12-22T06:24:19.506Z,74.13
2018-12-22T06:26:27.510Z,74.77
2018-12-22T06:28:35.812Z,74.28
2018-12-22T06:30:42.114Z,74.18
2018-12-22T06:32:48.541Z,74.61
2018-12-22T06:34:55.037Z,74.15
2018-12-22T06:37:01.581Z,74.36
2018-12-22T06:39:08.285Z,74.27
2018-12-22T06:41:15.456Z,73.79
2018-12-22T06:43:23.025Z,74.41
2018-12-22T06:45:31.487Z,74.42
2018-12-22T06:47:38.334Z,74.68
2018-12-22T06:49:44.857Z,74.07
2018-12-22T06:51:52.264Z,74.11
2018-12-22T06:53:58.870Z,74.11
2018-12-22T06:56:05.661Z,74.63
2018-12-22T06:58:12.167Z,74.25
2018-12-22T07:00:19.857Z,73.68
2018-12-22T07:02:28.500Z,73.40
2018-12-22T07:04:35.518Z,74.00
2018-12-22T07:06:45.613Z,73.95
2018-12-22T07:08:52.463Z,73.75
2018-12-22T07:11:00.924Z,73.19
2018-12-22T07:13:07.958Z,73.53
2018-12-22T07:15:15.488Z,73.01
2018-12-22T07:19:39.644Z,72.96
2018-12-22T07:21:48.214Z,72.96
2018-12-22T07:23:56.811Z,72.98
2018-12-22T07:26:04.265Z,72.95
2018-12-22T07:28:10.679Z,72.90
2018-12-22T07:30:16.957Z,73.17
2018-12-22T07:32:23.499Z,72.53
2018-12-22T07:34:30.094Z,72.76
2018-12-22T07:36:38.031Z,72.95
2018-12-22T07:38:46.610Z,72.99
2018-12-22T07:40:53.563Z,73.20
2018-12-22T07:43:00.987Z,72.89
2018-12-22T07:45:09.026Z,72.85
2018-12-22T07:47:19.220Z,72.75
2018-12-22T07:49:26.933Z,72.05
2018-12-22T07:51:33.923Z,72.03
2018-12-22T07:53:41.312Z,72.50
2018-12-22T07:55:48.408Z,71.84
2018-12-22T07:57:56.858Z,71.82
2018-12-22T08:00:03.495Z,72.31
2018-12-22T08:02:10.252Z,71.92
2018-12-22T08:04:16.718Z,72.51
2018-12-22T08:06:23.136Z,71.86
2018-12-22T08:08:29.560Z,72.03
2018-12-22T08:10:36.841Z,72.25
2018-12-22T08:12:43.224Z,72.06
2018-12-22T08:14:50.127Z,71.64
2018-12-22T08:16:58.426Z,71.53
2018-12-22T08:19:05.570Z,71.49
2018-12-22T08:21:12.905Z,72.31
2018-12-22T08:23:19.465Z,72.06
2018-12-22T08:25:26.775Z,72.27
2018-12-22T08:27:34.057Z,72.23
2018-12-22T08:29:40.570Z,71.53
2018-12-22T08:31:48.459Z,72.15
2018-12-22T08:33:55.736Z,71.94
2018-12-22T08:36:03.565Z,71.44
2018-12-22T08:38:12.364Z,72.03
2018-12-22T08:40:19.391Z,71.59
2018-12-22T08:42:25.996Z,72.16
2018-12-22T08:44:32.506Z,71.58
2018-12-22T08:46:39.751Z,71.72
2018-12-22T08:48:48.052Z,71.69
2018-12-22T08:50:56.086Z,71.83
2018-12-22T08:53:02.363Z,72.02
2018-12-22T08:55:09.910Z,71.48
2018-12-22T08:57:17.770Z,71.47
2018-12-22T08:59:24.523Z,71.67
2018-12-22T09:01:30.801Z,71.81
2018-12-22T09:03:37.170Z,70.94
2018-12-22T09:05:43.932Z,71.77
2018-12-22T09:07:52.144Z,71.70
2018-12-22T09:09:58.774Z,71.08
2018-12-22T09:12:05.218Z,70.91
2018-12-22T09:14:12.047Z,71.38
2018-12-22T09:16:18.437Z,71.08
2018-12-22T09:18:25.633Z,71.58
2018-12-22T09:20:34.169Z,70.92
2018-12-22T09:22:41.087Z,70.95
2018-12-22T09:24:48.430Z,70.48
2018-12-22T09:26:55.791Z,70.90
2018-12-22T09:29:02.086Z,70.45
2018-12-22T09:31:08.445Z,70.44
2018-12-22T09:33:14.729Z,70.72
2018-12-22T09:35:20.910Z,71.02
2018-12-22T09:37:27.281Z,70.07
2018-12-22T09:39:34.077Z,70.60
2018-12-22T09:41:40.731Z,70.56
2018-12-22T09:43:47.317Z,70.44
2018-12-22T09:45:53.859Z,70.04
2018-12-22T09:48:00.572Z,70.15
2018-12-22T09:50:11.363Z,69.59
2018-12-22T09:52:18.428Z,69.74
2018-12-22T09:54:24.601Z,69.56
2018-12-22T09:56:30.906Z,69.50
2018-12-22T09:58:37.194Z,69.18
2018-12-22T10:00:43.652Z,69.96
2018-12-22T10:02:50.353Z,69.22
2018-12-22T10:04:56.642Z,69.22
2018-12-22T10:07:05.347Z,69.66
2018-12-22T10:09:11.687Z,68.79
2018-12-22T10:11:17.891Z,69.22
2018-12-22T10:13:24.961Z,68.71
2018-12-22T10:15:31.189Z,68.58
2018-12-22T10:17:38.270Z,68.87
2018-12-22T10:19:45.112Z,68.13
2018-12-22T10:21:51.357Z,68.23
2018-12-22T10:23:57.623Z,68.12
2018-12-22T10:26:03.939Z,68.01
2018-12-22T10:28:10.167Z,68.48
2018-12-22T10:30:18.194Z,68.26
2018-12-22T10:32:24.533Z,67.50
2018-12-22T10:34:31.564Z,68.32
2018-12-22T10:36:38.159Z,67.38
2018-12-22T10:38:44.518Z,67.59
2018-12-22T10:40:51.166Z,67.52
2018-12-22T10:42:57.445Z,67.50
2018-12-22T10:45:03.942Z,67.43
2018-12-22T10:47:10.911Z,67.77
2018-12-22T10:49:17.241Z,67.59
2018-12-22T10:51:24.447Z,67.50
2018-12-22T10:53:32.066Z,67.32
2018-12-22T10:55:38.196Z,66.66
2018-12-22T10:57:44.315Z,67.00
2018-12-22T10:59:50.545Z,66.76
2018-12-22T11:01:57.162Z,66.83
2018-12-22T11:04:03.964Z,67.03
2018-12-22T11:06:11.558Z,66.91
2018-12-22T11:08:17.687Z,66.85
2018-12-22T11:10:26.843Z,66.66
2018-12-22T11:12:33.073Z,66.91
2018-12-22T11:14:39.353Z,67.31
2018-12-22T11:16:45.554Z,67.01
2018-12-22T11:18:51.791Z,66.93
2018-12-22T11:20:57.938Z,67.30
2018-12-22T11:23:04.584Z,67.48
2018-12-22T11:25:22.393Z,66.93
2018-12-22T11:27:28.592Z,67.33
2018-12-22T11:29:35.341Z,67.02
2018-12-22T11:31:41.536Z,67.17
2018-12-22T11:33:47.929Z,66.96
2018-12-22T11:35:54.405Z,67.22
2018-12-22T11:38:00.764Z,67.01
2018-12-22T11:40:09.171Z,67.39
2018-12-22T11:42:16.829Z,66.86
2018-12-22T11:44:23.083Z,67.07
2018-12-22T11:46:29.578Z,67.87
2018-12-22T11:48:58.738Z,67.16
2018-12-22T11:51:04.913Z,67.32
2018-12-22T11:53:11.917Z,67.79
2018-12-22T11:55:18.945Z,67.03
2018-12-22T11:57:25.944Z,68.12
2018-12-22T11:59:32.200Z,67.93
2018-12-22T12:01:43.492Z,67.43
2018-12-22T12:03:48.752Z,67.33
2018-12-22T12:05:55.069Z,67.84
2018-12-22T12:08:01.307Z,68.17
2018-12-22T12:10:10.749Z,68.57
2018-12-22T12:12:17.098Z,68.74
2018-12-22T12:14:24.007Z,68.62
2018-12-22T12:17:42.609Z,69.06
2018-12-22T12:19:48.986Z,69.67
2018-12-22T12:21:55.254Z,69.21
2018-12-22T12:24:03.188Z,69.32
2018-12-22T12:26:10.722Z,69.86
2018-12-22T12:28:16.979Z,68.99
2018-12-22T12:30:23.749Z,69.44
2018-12-22T12:32:29.877Z,69.40
2018-12-22T12:34:36.288Z,69.85
2018-12-22T12:36:42.649Z,69.36
2018-12-22T12:38:49.232Z,69.06
2018-12-22T12:40:56.335Z,69.10
2018-12-22T12:43:02.997Z,69.06
2018-12-22T12:45:32.144Z,68.94
2018-12-22T12:48:01.895Z,69.15
2018-12-22T12:52:30.002Z,68.78
2018-12-22T12:54:36.303Z,68.77
2018-12-22T12:56:54.843Z,68.93
2018-12-22T12:59:08.316Z,68.47
2018-12-22T13:01:14.890Z,68.54
2018-12-22T13:03:21.096Z,68.63
2018-12-22T13:05:27.265Z,69.01
2018-12-22T13:07:33.810Z,68.92
2018-12-22T13:09:40.095Z,68.38
2018-12-22T13:11:46.522Z,68.85
2018-12-22T13:14:00.173Z,68.00
2018-12-22T13:16:06.476Z,68.56
2018-12-22T13:18:12.753Z,68.71
2018-12-22T13:20:19.280Z,67.95
2018-12-22T13:22:25.636Z,68.80
2018-12-22T13:24:31.933Z,68.03
2018-12-22T13:26:38.263Z,68.46
2018-12-22T13:28:44.891Z,68.16
2018-12-22T13:30:51.086Z,68.62
2018-12-22T13:32:58.701Z,68.36
2018-12-22T13:35:05.739Z,68.20
2018-12-22T13:37:12.843Z,68.07
2018-12-22T13:39:25.563Z,68.02
2018-12-22T13:41:31.990Z,68.53
2018-12-22T13:43:38.136Z,68.03
2018-12-22T13:45:44.707Z,68.22
2018-12-22T13:47:52.373Z,68.35
2018-12-22T13:50:00.000Z,68.24
2018-12-22T13:52:06.226Z,68.65
2018-12-22T13:54:14.310Z,68.45
2018-12-22T13:56:20.515Z,67.94
2018-12-22T13:58:28.118Z,68.80
2018-12-22T14:02:59.491Z,68.05
2018-12-22T14:05:08.267Z,68.27
2018-12-22T14:07:15.095Z,68.32
2018-12-22T14:09:21.378Z,68.08
2018-12-22T14:11:27.891Z,68.13
2018-12-22T14:13:34.167Z,68.04
2018-12-22T14:15:51.799Z,68.81
2018-12-22T14:18:10.701Z,68.44
2018-12-22T14:20:19.602Z,68.29
2018-12-22T14:22:26.413Z,68.30
2018-12-22T14:24:44.340Z,68.51
2018-12-22T14:26:51.567Z,68.28
2018-12-22T14:28:58.126Z,68.45
2018-12-22T14:31:04.914Z,68.72
2018-12-22T14:33:12.249Z,68.71
2018-12-22T14:36:00.319Z,68.60
2018-12-22T14:38:07.153Z,68.34
2018-12-22T14:40:14.323Z,68.34
2018-12-22T14:42:20.771Z,68.37
2018-12-22T14:44:27.612Z,68.57
2018-12-22T14:46:34.233Z,68.28
2018-12-22T14:48:40.496Z,67.69
2018-12-22T14:50:47.809Z,67.92
2018-12-22T14:52:55.136Z,68.20
2018-12-22T14:55:01.605Z,67.62
2018-12-22T14:57:07.745Z,68.24
2018-12-22T14:59:18.896Z,68.25
2018-12-22T15:01:25.224Z,68.19
2018-12-22T15:03:31.674Z,68.29
2018-12-22T15:05:39.045Z,68.21
2018-12-22T15:07:45.309Z,68.48
2018-12-22T15:09:52.354Z,68.22
2018-12-22T15:11:58.738Z,68.50
2018-12-22T15:14:05.095Z,68.53
2018-12-22T15:16:11.416Z,68.59
2018-12-22T15:18:18.437Z,68.80
2018-12-22T15:20:27.723Z,68.60
2018-12-22T15:22:34.138Z,68.20
2018-12-22T15:24:40.319Z,67.93
2018-12-22T15:26:46.956Z,67.95
2018-12-22T15:28:53.422Z,68.23
2018-12-22T15:30:59.630Z,68.12
2018-12-22T15:33:05.905Z,68.05
2018-12-22T15:35:12.431Z,67.85
2018-12-22T15:37:18.643Z,67.68
2018-12-22T15:39:25.165Z,68.41
2018-12-22T15:41:31.337Z,68.22
2018-12-22T15:43:37.565Z,68.35
2018-12-22T15:45:44.712Z,68.28
2018-12-22T15:47:51.327Z,67.88
2018-12-22T15:49:57.494Z,68.36
2018-12-22T15:52:04.296Z,67.83
2018-12-22T15:54:10.412Z,67.91
2018-12-22T15:56:16.779Z,67.37
2018-12-22T15:58:22.989Z,67.95
2018-12-22T16:00:29.094Z,67.88
2018-12-22T16:02:36.062Z,67.80
2018-12-22T16:04:42.416Z,67.59
2018-12-22T16:06:48.612Z,68.08
2018-12-22T16:08:55.369Z,67.80
2018-12-22T16:11:01.522Z,67.35
2018-12-22T16:13:07.787Z,67.97
2018-12-22T16:15:17.498Z,67.42
2018-12-22T16:17:23.739Z,67.96
2018-12-22T16:19:29.867Z,67.77
2018-12-22T16:21:35.998Z,67.64
2018-12-22T16:23:42.277Z,67.41
2018-12-22T16:25:48.745Z,67.73
2018-12-22T16:28:00.528Z,67.89
2018-12-22T16:30:15.267Z,67.06
2018-12-22T16:32:21.614Z,67.61
2018-12-22T16:34:28.408Z,67.43
2018-12-22T16:36:34.682Z,67.34
2018-12-22T16:38:41.818Z,67.41
2018-12-22T16:40:48.012Z,67.29
2018-12-22T16:42:54.165Z,68.06
2018-12-22T16:45:01.799Z,67.48
2018-12-22T16:47:08.109Z,67.94
2018-12-22T16:49:16.346Z,67.80
2018-12-22T16:51:26.527Z,67.71
2018-12-22T16:53:32.954Z,67.25
2018-12-22T16:55:39.176Z,67.54
2018-12-22T16:57:53.626Z,67.25
2018-12-22T16:59:59.909Z,67.24
2018-12-22T17:02:19.225Z,67.89
2018-12-22T17:04:25.570Z,67.46
2018-12-22T17:06:33.602Z,67.89
2018-12-22T17:08:39.729Z,68.48
2018-12-22T17:10:50.307Z,68.40
2018-12-22T17:12:56.445Z,68.59
2018-12-22T17:15:03.780Z,68.66
2018-12-22T17:17:10.157Z,68.75
2018-12-22T17:19:16.410Z,68.47
2018-12-22T17:21:40.196Z,68.58
2018-12-22T17:23:52.966Z,68.60
2018-12-22T17:26:03.912Z,68.96
2018-12-22T17:28:10.609Z,68.64
2018-12-22T17:30:16.953Z,68.48
2018-12-22T17:32:23.634Z,69.03
2018-12-22T17:34:30.021Z,69.04
2018-12-22T17:36:37.511Z,68.78
2018-12-22T17:38:44.017Z,68.29
2018-12-22T17:40:50.344Z,68.78
2018-12-22T17:42:57.045Z,68.56
2018-12-22T17:45:04.038Z,68.28
2018-12-22T17:47:10.281Z,68.80
2018-12-22T17:49:16.383Z,68.58
2018-12-22T17:51:22.564Z,68.63
2018-12-22T17:53:28.789Z,68.70
2018-12-22T17:55:35.140Z,68.78
2018-12-22T17:57:41.349Z,69.02
2018-12-22T17:59:47.719Z,68.77
2018-12-22T18:01:53.925Z,69.46
2018-12-22T18:04:01.310Z,68.66
2018-12-22T18:06:07.469Z,68.94
2018-12-22T18:08:13.639Z,69.24
2018-12-22T18:10:19.907Z,69.57
2018-12-22T18:12:26.028Z,69.07
2018-12-22T18:14:32.210Z,69.52
2018-12-22T18:16:38.371Z,69.46
2018-12-22T18:18:44.576Z,69.26
2018-12-22T18:20:50.950Z,69.81
2018-12-22T18:22:57.570Z,69.34
2018-12-22T18:25:04.120Z,69.18
2018-12-22T18:27:10.419Z,69.72
2018-12-22T18:29:16.797Z,69.99
2018-12-22T18:31:23.020Z,69.96
2018-12-22T18:33:35.918Z,69.47
2018-12-22T18:35:37.265Z,70.03
2018-12-22T18:37:43.467Z,69.87
2018-12-22T18:39:49.782Z,69.32
2018-12-22T18:41:55.891Z,69.98
2018-12-22T18:44:02.796Z,69.68
2018-12-22T18:46:09.633Z,69.67
2018-12-22T18:48:15.798Z,69.95
2018-12-22T18:50:26.233Z,69.67
2018-12-22T18:52:32.998Z,69.73
2018-12-22T18:54:39.351Z,69.38
2018-12-22T18:56:45.620Z,69.71
2018-12-22T18:58:52.699Z,69.73
2018-12-22T19:00:59.357Z,69.45
2018-12-22T19:03:05.524Z,70.00
2018-12-22T19:05:12.321Z,70.35
2018-12-22T19:07:20.263Z,70.01
2018-12-22T19:09:30.470Z,69.82
2018-12-22T19:11:37.256Z,69.62
2018-12-22T19:13:47.640Z,70.34
2018-12-22T19:15:54.509Z,69.77
2018-12-22T19:18:00.720Z,69.35
2018-12-22T19:20:13.426Z,69.53
2018-12-22T19:22:19.777Z,69.73
2018-12-22T19:24:25.919Z,69.84
2018-12-22T19:26:32.234Z,70.66
2018-12-22T19:28:38.433Z,69.89
2018-12-22T19:30:44.811Z,70.09
2018-12-22T19:32:51.462Z,69.83
2018-12-22T19:34:58.107Z,69.78
2018-12-22T19:37:04.918Z,69.50
2018-12-22T19:39:19.071Z,69.73
2018-12-22T19:41:26.457Z,69.61
2018-12-22T19:43:36.828Z,70.30
2018-12-22T19:45:45.597Z,69.99
2018-12-22T19:47:52.003Z,70.33
2018-12-22T19:49:58.186Z,69.86
2018-12-22T19:52:04.430Z,69.88
2018-12-22T19:54:10.612Z,70.29
2018-12-22T19:56:17.368Z,69.69
2018-12-22T19:58:24.104Z,69.84
2018-12-22T20:00:30.288Z,70.32
2018-12-22T20:02:36.454Z,69.46
2018-12-22T20:04:42.618Z,69.96
2018-12-22T20:06:48.890Z,69.45
2018-12-22T20:08:55.113Z,69.45
2018-12-22T20:11:02.583Z,69.74
2018-12-22T20:13:08.800Z,69.97
2018-12-22T20:15:15.243Z,69.95
2018-12-22T20:17:21.909Z,69.69
2018-12-22T20:19:28.241Z,70.20
2018-12-22T20:21:34.542Z,69.78
2018-12-22T20:23:40.782Z,70.05
2018-12-22T20:25:47.785Z,70.00
2018-12-22T20:27:55.123Z,69.67
2018-12-22T20:30:01.319Z,70.46
2018-12-22T20:32:07.550Z,70.18
2018-12-22T20:34:14.855Z,69.88
2018-12-22T20:36:22.146Z,70.38
2018-12-22T20:38:28.937Z,70.33
2018-12-22T20:40:35.251Z,70.61
2018-12-22T20:42:41.881Z,70.35
2018-12-22T20:44:48.083Z,70.72
2018-12-22T20:46:55.231Z,70.20
2018-12-22T20:49:01.411Z,69.89
2018-12-22T20:51:07.652Z,70.66
2018-12-22T20:53:14.271Z,70.62
2018-12-22T20:55:20.590Z,70.33
2018-12-22T20:57:26.956Z,70.39
2018-12-22T20:59:33.560Z,69.81
2018-12-22T21:01:39.760Z,70.23
2018-12-22T21:03:46.076Z,69.92
2018-12-22T21:05:59.559Z,70.44
2018-12-22T21:10:23.186Z,69.89
2018-12-22T21:12:29.582Z,70.17
2018-12-22T21:14:35.978Z,70.15
2018-12-22T21:16:42.749Z,70.37
2018-12-22T21:18:49.150Z,69.82
2018-12-22T21:20:55.389Z,70.36
2018-12-22T21:23:01.922Z,70.13
2018-12-22T21:25:08.200Z,70.28
2018-12-22T21:27:15.717Z,69.75
2018-12-22T21:29:21.940Z,70.10
2018-12-22T21:31:28.865Z,69.96
2018-12-22T21:33:35.965Z,69.54
2018-12-22T21:35:52.796Z,70.53
2018-12-22T21:37:51.074Z,70.15
2018-12-22T21:39:58.882Z,70.71
2018-12-22T21:42:05.142Z,70.48
2018-12-22T21:44:11.525Z,70.35
2018-12-22T21:46:18.526Z,70.71
2018-12-22T21:48:25.491Z,70.35
2018-12-22T21:50:31.679Z,70.50
2018-12-22T21:52:38.521Z,69.76
2018-12-22T21:54:45.664Z,70.35
2018-12-22T21:56:51.978Z,70.60
2018-12-22T21:58:58.530Z,70.56
2018-12-22T22:03:20.171Z,70.24
2018-12-22T22:05:26.433Z,70.23
2018-12-22T22:07:32.770Z,70.18
2018-12-22T22:09:39.793Z,69.93
2018-12-22T22:11:46.442Z,68.98
2018-12-22T22:13:52.818Z,69.40
2018-12-22T22:15:59.057Z,69.35
2018-12-22T22:18:05.442Z,69.94
2018-12-22T22:20:12.378Z,69.54
2018-12-22T22:22:18.699Z,69.46
2018-12-22T22:24:24.909Z,69.99
2018-12-22T22:26:33.113Z,69.74
2018-12-22T22:28:39.923Z,70.93
2018-12-22T22:30:46.181Z,70.93
2018-12-22T22:32:52.576Z,71.68
2018-12-22T22:34:58.900Z,71.32
2018-12-22T22:37:05.470Z,71.93
2018-12-22T22:39:11.842Z,72.04
2018-12-22T22:41:17.977Z,72.27
2018-12-22T22:43:24.824Z,72.11
2018-12-22T22:45:31.741Z,71.94
2018-12-22T22:47:37.933Z,72.27
2018-12-22T22:49:44.554Z,72.06
2018-12-22T22:51:50.950Z,71.82
2018-12-22T22:53:57.193Z,72.30
2018-12-22T22:56:03.417Z,72.24
2018-12-22T22:58:09.608Z,71.99
2018-12-22T23:00:21.414Z,72.11
2018-12-22T23:02:27.744Z,72.26
2018-12-22T23:04:34.209Z,72.09
2018-12-22T23:06:40.612Z,71.90
2018-12-22T23:08:48.165Z,72.37
2018-12-22T23:10:54.386Z,71.95
2018-12-22T23:13:00.626Z,72.41
2018-12-22T23:15:07.070Z,72.01
2018-12-22T23:17:13.317Z,72.35
2018-12-22T23:19:19.719Z,72.59
2018-12-22T23:21:25.887Z,72.34
2018-12-22T23:23:32.102Z,72.95
2018-12-22T23:25:39.742Z,72.47
2018-12-22T23:27:46.705Z,72.36
2018-12-22T23:29:53.365Z,72.14
2018-12-22T23:31:59.690Z,72.26
2018-12-22T23:34:05.811Z,72.78
2018-12-22T23:36:12.795Z,72.56
2018-12-22T23:38:19.398Z,72.72
2018-12-22T23:40:25.751Z,72.74
2018-12-22T23:42:32.030Z,72.50
2018-12-22T23:44:38.196Z,72.63
2018-12-22T23:46:45.480Z,72.55
2018-12-22T23:48:51.765Z,72.91
2018-12-22T23:50:58.274Z,72.36
2018-12-22T23:53:04.447Z,72.37
2018-12-22T23:55:11.507Z,72.26
2018-12-22T23:57:17.869Z,72.71
2018-12-22T23:59:24.176Z,72.73
